createdAt,value
2023-01-29T00:00:18.605Z,100733.56
2023-01-29T00:01:07.309Z,100720.06
2023-01-29T00:01:54.278Z,100723.38
2023-01-29T00:02:41.267Z,100721.34
2023-01-29T00:03:28.085Z,100718.50
2023-01-29T00:04:15.080Z,100724.25
2023-01-29T00:05:16.707Z,100718.03
2023-01-29T00:06:09.597Z,100720.50
2023-01-29T00:06:56.466Z,100726.50
2023-01-29T00:07:43.448Z,100723.06
2023-01-29T00:08:30.426Z,100722.31
2023-01-29T00:09:17.401Z,100722.31
2023-01-29T00:10:04.621Z,100727.53
2023-01-29T00:10:51.627Z,100716.25
2023-01-29T00:11:38.816Z,100720.59
2023-01-29T00:12:25.809Z,100724.53
2023-01-29T00:13:12.691Z,100722.84
2023-01-29T00:13:59.529Z,100722.91
2023-01-29T00:14:46.396Z,100725.91
2023-01-29T00:15:33.224Z,100725.16
2023-01-29T00:16:20.159Z,100722.50
2023-01-29T00:17:07.051Z,100721.22
2023-01-29T00:17:53.913Z,100734.12
2023-01-29T00:18:41.496Z,100724.44
2023-01-29T00:19:28.332Z,100730.91
2023-01-29T00:20:16.095Z,100720.91
2023-01-29T00:21:03.137Z,100723.06
2023-01-29T00:21:49.977Z,100729.44
2023-01-29T00:22:36.964Z,100726.78
2023-01-29T00:23:23.937Z,100732.34
2023-01-29T00:24:11.407Z,100731.91
2023-01-29T00:24:58.480Z,100736.22
2023-01-29T00:25:45.860Z,100730.50
2023-01-29T00:26:32.859Z,100732.72
2023-01-29T00:27:19.848Z,100736.22
2023-01-29T00:28:06.700Z,100736.97
2023-01-29T00:28:53.516Z,100727.19
2023-01-29T00:29:40.439Z,100732.53
2023-01-29T00:30:27.332Z,100728.69
2023-01-29T00:31:17.181Z,100729.66
2023-01-29T00:32:04.337Z,100729.44
2023-01-29T00:32:51.402Z,100734.34
2023-01-29T00:33:38.365Z,100735.84
2023-01-29T00:34:25.271Z,100736.81
2023-01-29T00:35:12.691Z,100731.34
2023-01-29T00:36:03.018Z,100735.50
2023-01-29T00:36:49.863Z,100730.34
2023-01-29T00:37:36.890Z,100728.50
2023-01-29T00:38:23.701Z,100733.38
2023-01-29T00:39:13.243Z,100733.47
2023-01-29T00:40:00.541Z,100729.84
2023-01-29T00:41:06.124Z,100733.16
2023-01-29T00:42:11.736Z,100726.56
2023-01-29T00:43:17.364Z,100726.88
2023-01-29T00:44:23.035Z,100734.63
2023-01-29T00:45:10.920Z,100733.16
2023-01-29T00:45:57.752Z,100734.97
2023-01-29T00:46:44.885Z,100740.28
2023-01-29T00:47:33.664Z,100737.31
2023-01-29T00:48:20.759Z,100740.81
2023-01-29T00:49:08.096Z,100733.81
2023-01-29T00:49:55.226Z,100742.19
2023-01-29T00:50:42.131Z,100738.34
2023-01-29T00:51:29.069Z,100741.34
2023-01-29T00:52:25.097Z,100746.69
2023-01-29T00:53:11.907Z,100744.88
2023-01-29T00:54:02.815Z,100748.19
2023-01-29T00:54:49.775Z,100743.16
2023-01-29T00:55:36.664Z,100743.03
2023-01-29T00:56:23.515Z,100745.28
2023-01-29T00:57:10.402Z,100748.69
2023-01-29T00:57:57.320Z,100742.50
2023-01-29T00:58:44.225Z,100747.53
2023-01-29T00:59:31.172Z,100742.44
2023-01-29T01:00:19.763Z,100741.38
2023-01-29T01:01:06.714Z,100738.59
2023-01-29T01:02:12.026Z,100742.22
2023-01-29T01:03:07.919Z,100744.66
2023-01-29T01:03:54.745Z,100742.53
2023-01-29T01:04:41.588Z,100748.19
2023-01-29T01:05:28.762Z,100741.81
2023-01-29T01:06:15.612Z,100741.91
2023-01-29T01:07:02.472Z,100744.69
2023-01-29T01:07:51.198Z,100741.81
2023-01-29T01:08:56.478Z,100746.41
2023-01-29T01:10:02.096Z,100749.16
2023-01-29T01:10:48.988Z,100749.78
2023-01-29T01:11:35.883Z,100746.50
2023-01-29T01:12:23.230Z,100748.66
2023-01-29T01:13:10.052Z,100747.47
2023-01-29T01:14:02.343Z,100747.66
2023-01-29T01:14:49.425Z,100755.47
2023-01-29T01:15:39.328Z,100751.41
2023-01-29T01:16:27.231Z,100746.59
2023-01-29T01:17:15.805Z,100748.22
2023-01-29T01:18:03.962Z,100756.81
2023-01-29T01:18:50.825Z,100747.91
2023-01-29T01:19:37.703Z,100746.06
2023-01-29T01:20:26.498Z,100750.47
2023-01-29T01:21:13.641Z,100752.66
2023-01-29T01:22:00.542Z,100752.03
2023-01-29T01:22:47.447Z,100749.13
2023-01-29T01:23:34.697Z,100749.13
2023-01-29T01:24:21.675Z,100749.69
2023-01-29T01:25:09.043Z,100760.31
2023-01-29T01:25:56.017Z,100758.19
2023-01-29T01:26:43.047Z,100751.72
2023-01-29T01:27:30.086Z,100755.13
2023-01-29T01:28:17.335Z,100748.09
2023-01-29T01:29:04.411Z,100753.41
2023-01-29T01:29:51.568Z,100747.88
2023-01-29T01:30:38.475Z,100754.47
2023-01-29T01:31:25.415Z,100758.41
2023-01-29T01:32:12.757Z,100752.88
2023-01-29T01:32:59.770Z,100753.13
2023-01-29T01:33:46.701Z,100750.47
2023-01-29T01:34:33.705Z,100745.97
2023-01-29T01:35:20.788Z,100752.78
2023-01-29T01:36:09.974Z,100750.94
2023-01-29T01:36:57.052Z,100747.22
2023-01-29T01:37:43.902Z,100755.19
2023-01-29T01:38:30.753Z,100755.75
2023-01-29T01:39:17.656Z,100748.22
2023-01-29T01:40:06.206Z,100754.38
2023-01-29T01:40:53.057Z,100748.97
2023-01-29T01:41:40.068Z,100750.47
2023-01-29T01:42:32.503Z,100756.31
2023-01-29T01:43:19.345Z,100749.59
2023-01-29T01:44:07.134Z,100758.97
2023-01-29T01:45:01.434Z,100757.47
2023-01-29T01:45:48.745Z,100760.44
2023-01-29T01:46:37.406Z,100751.81
2023-01-29T01:47:28.436Z,100758.53
2023-01-29T01:48:25.221Z,100753.31
2023-01-29T01:49:19.329Z,100751.28
2023-01-29T01:50:40.066Z,100760.09
2023-01-29T01:51:29.467Z,100752.88
2023-01-29T01:52:18.096Z,100753.53
2023-01-29T01:53:08.308Z,100757.34
2023-01-29T01:53:59.511Z,100762.44
2023-01-29T01:54:46.596Z,100754.06
2023-01-29T01:55:34.627Z,100759.37
2023-01-29T01:56:24.695Z,100751.50
2023-01-29T01:57:18.672Z,100756.03
2023-01-29T01:58:27.449Z,100751.91
2023-01-29T01:59:17.795Z,100758.84
2023-01-29T02:00:11.337Z,100755.94
2023-01-29T02:00:58.368Z,100761.47
2023-01-29T02:01:50.360Z,100763.25
2023-01-29T02:02:58.407Z,100760.84
2023-01-29T02:04:09.757Z,100759.13
2023-01-29T02:05:15.191Z,100763.50
2023-01-29T02:06:20.949Z,100764.19
2023-01-29T02:07:28.159Z,100755.09
2023-01-29T02:08:35.689Z,100758.41
2023-01-29T02:09:46.567Z,100760.09
2023-01-29T02:10:38.561Z,100763.59
2023-01-29T02:11:25.667Z,100772.22
2023-01-29T02:12:13.963Z,100772.53
2023-01-29T02:13:00.868Z,100769.88
2023-01-29T02:13:53.747Z,100768.16
2023-01-29T02:14:42.365Z,100771.47
2023-01-29T02:15:29.188Z,100774.12
2023-01-29T02:16:16.111Z,100774.78
2023-01-29T02:17:03.095Z,100769.47
2023-01-29T02:17:50.194Z,100770.66
2023-01-29T02:18:38.358Z,100773.19
2023-01-29T02:20:05.629Z,100766.94
2023-01-29T02:21:25.340Z,100774.25
2023-01-29T02:22:30.865Z,100776.16
2023-01-29T02:23:40.549Z,100770.97
2023-01-29T02:24:48.890Z,100767.66
2023-01-29T02:25:50.687Z,100774.66
2023-01-29T02:27:09.887Z,100775.06
2023-01-29T02:28:44.117Z,100775.81
2023-01-29T02:29:40.133Z,100779.53
2023-01-29T02:30:37.284Z,100780.69
2023-01-29T02:31:41.673Z,100777.41
2023-01-29T02:32:41.066Z,100777.09
2023-01-29T02:33:37.376Z,100778.78
2023-01-29T02:35:30.379Z,100781.25
2023-01-29T02:36:27.842Z,100777.19
2023-01-29T02:37:15.660Z,100777.94
2023-01-29T02:38:21.117Z,100787.06
2023-01-29T02:39:34.342Z,100788.78
2023-01-29T02:40:23.787Z,100781.56
2023-01-29T02:41:41.442Z,100778.72
2023-01-29T02:42:41.094Z,100782.53
2023-01-29T02:43:38.801Z,100779.78
2023-01-29T02:44:56.324Z,100790.56
2023-01-29T02:45:55.474Z,100790.13
2023-01-29T02:47:01.746Z,100795.53
2023-01-29T02:47:59.631Z,100794.16
2023-01-29T02:48:52.653Z,100793.84
2023-01-29T02:50:00.554Z,100795.53
2023-01-29T02:50:54.506Z,100789.69
2023-01-29T02:51:45.494Z,100792.41
2023-01-29T02:52:44.845Z,100792.84
2023-01-29T02:53:39.603Z,100794.25
2023-01-29T02:54:42.243Z,100790.00
2023-01-29T02:55:31.087Z,100802.72
2023-01-29T02:56:29.546Z,100795.63
2023-01-29T02:57:30.874Z,100791.34
2023-01-29T02:58:22.131Z,100788.84
2023-01-29T02:59:15.324Z,100787.44
2023-01-29T03:00:11.352Z,100788.66
2023-01-29T03:01:02.487Z,100796.34
2023-01-29T03:01:53.697Z,100783.03
2023-01-29T03:02:43.162Z,100792.13
2023-01-29T03:03:41.654Z,100795.75
2023-01-29T03:04:32.308Z,100791.91
2023-01-29T03:05:24.550Z,100797.62
2023-01-29T03:06:28.496Z,100790.84
2023-01-29T03:07:44.857Z,100805.06
2023-01-29T03:09:06.584Z,100799.97
2023-01-29T03:09:54.599Z,100809.78
2023-01-29T03:10:49.392Z,100796.56
2023-01-29T03:11:41.622Z,100794.66
2023-01-29T03:12:34.192Z,100799.75
2023-01-29T03:13:33.934Z,100794.38
2023-01-29T03:15:01.734Z,100794.69
2023-01-29T03:16:01.720Z,100800.41
2023-01-29T03:16:53.112Z,100788.94
2023-01-29T03:17:52.161Z,100798.16
2023-01-29T03:18:46.350Z,100792.97
2023-01-29T03:19:37.707Z,100797.75
2023-01-29T03:20:32.390Z,100795.41
2023-01-29T03:21:45.209Z,100797.31
2023-01-29T03:22:32.184Z,100796.03
2023-01-29T03:23:44.477Z,100798.56
2023-01-29T03:25:11.672Z,100801.22
2023-01-29T03:26:18.236Z,100805.91
2023-01-29T03:27:27.806Z,100802.84
2023-01-29T03:28:36.288Z,100804.00
2023-01-29T03:29:41.860Z,100808.16
2023-01-29T03:30:49.890Z,100804.94
2023-01-29T03:31:55.702Z,100802.38
2023-01-29T03:32:43.628Z,100803.25
2023-01-29T03:33:33.921Z,100804.13
2023-01-29T03:34:28.714Z,100804.22
2023-01-29T03:35:21.895Z,100804.62
2023-01-29T03:36:19.502Z,100801.22
2023-01-29T03:37:14.077Z,100810.84
2023-01-29T03:38:01.194Z,100808.44
2023-01-29T03:38:48.034Z,100816.78
2023-01-29T03:39:35.390Z,100811.31
2023-01-29T03:40:22.372Z,100808.56
2023-01-29T03:41:14.695Z,100811.41
2023-01-29T03:42:10.600Z,100814.62
2023-01-29T03:43:10.402Z,100818.44
2023-01-29T03:44:09.891Z,100824.41
2023-01-29T03:45:18.037Z,100828.12
2023-01-29T03:46:14.483Z,100808.00
2023-01-29T03:47:23.770Z,100824.72
2023-01-29T03:48:34.392Z,100819.28
2023-01-29T03:49:39.338Z,100816.41
2023-01-29T03:50:42.902Z,100821.97
2023-01-29T03:51:41.213Z,100814.81
2023-01-29T03:53:08.691Z,100817.38
2023-01-29T03:53:55.590Z,100814.72
2023-01-29T03:55:01.465Z,100813.59
2023-01-29T03:55:58.534Z,100825.56
2023-01-29T03:56:48.293Z,100820.44
2023-01-29T03:57:59.165Z,100825.97
2023-01-29T03:59:03.265Z,100827.88
2023-01-29T04:00:08.205Z,100825.09
2023-01-29T04:00:59.143Z,100822.25
2023-01-29T04:01:55.309Z,100826.38
2023-01-29T04:02:56.001Z,100824.34
2023-01-29T04:03:50.413Z,100823.59
2023-01-29T04:04:38.674Z,100826.06
2023-01-29T04:05:28.511Z,100818.84
2023-01-29T04:06:19.494Z,100817.69
2023-01-29T04:07:14.388Z,100820.53
2023-01-29T04:08:10.560Z,100814.72
2023-01-29T04:09:07.714Z,100819.38
2023-01-29T04:10:05.346Z,100819.38
2023-01-29T04:10:53.380Z,100819.09
2023-01-29T04:11:45.716Z,100815.53
2023-01-29T04:12:38.593Z,100820.22
2023-01-29T04:13:25.550Z,100824.53
2023-01-29T04:14:12.749Z,100822.72
2023-01-29T04:15:02.189Z,100824.91
2023-01-29T04:15:58.566Z,100820.66
2023-01-29T04:16:50.410Z,100812.56
2023-01-29T04:17:43.695Z,100818.44
2023-01-29T04:18:35.175Z,100816.94
2023-01-29T04:19:23.177Z,100814.28
2023-01-29T04:20:10.646Z,100813.75
2023-01-29T04:20:57.467Z,100815.41
2023-01-29T04:21:44.384Z,100823.25
2023-01-29T04:22:39.170Z,100819.97
2023-01-29T04:23:27.579Z,100812.16
2023-01-29T04:24:15.131Z,100816.53
2023-01-29T04:25:08.617Z,100822.16
2023-01-29T04:26:26.660Z,100806.09
2023-01-29T04:27:24.637Z,100812.78
2023-01-29T04:28:19.130Z,100808.88
2023-01-29T04:29:31.166Z,100806.22
2023-01-29T04:30:18.140Z,100803.44
2023-01-29T04:31:08.828Z,100808.56
2023-01-29T04:31:55.758Z,100805.03
2023-01-29T04:33:16.264Z,100809.09
2023-01-29T04:34:18.019Z,100806.44
2023-01-29T04:35:28.068Z,100806.97
2023-01-29T04:36:36.946Z,100805.16
2023-01-29T04:37:42.764Z,100805.16
2023-01-29T04:38:41.563Z,100804.00
2023-01-29T04:39:50.307Z,100815.41
2023-01-29T04:41:04.588Z,100805.59
2023-01-29T04:42:37.900Z,100803.34
2023-01-29T04:43:29.694Z,100801.06
2023-01-29T04:44:45.428Z,100809.25
2023-01-29T04:45:50.437Z,100806.34
2023-01-29T04:46:50.835Z,100802.75
2023-01-29T04:47:46.599Z,100809.84
2023-01-29T04:48:59.922Z,100806.87
2023-01-29T04:50:39.122Z,100820.94
2023-01-29T04:51:35.573Z,100809.34
2023-01-29T04:52:29.539Z,100801.16
2023-01-29T04:53:40.878Z,100807.44
2023-01-29T04:54:54.830Z,100799.25
2023-01-29T04:55:55.222Z,100804.22
2023-01-29T04:56:51.573Z,100807.09
2023-01-29T04:58:00.250Z,100804.81
2023-01-29T04:59:01.423Z,100800.66
2023-01-29T04:59:54.543Z,100800.56
2023-01-29T05:00:45.028Z,100800.25
2023-01-29T05:01:33.592Z,100806.34
2023-01-29T05:02:22.364Z,100799.72
2023-01-29T05:03:11.777Z,100800.16
2023-01-29T05:04:00.613Z,100799.87
2023-01-29T05:04:48.254Z,100785.59
2023-01-29T05:05:35.371Z,100794.84
2023-01-29T05:06:23.165Z,100798.28
2023-01-29T05:07:12.738Z,100793.88
2023-01-29T05:08:00.012Z,100798.38
2023-01-29T05:08:48.097Z,100789.53
2023-01-29T05:09:35.213Z,100797.31
2023-01-29T05:10:23.079Z,100798.38
2023-01-29T05:11:10.519Z,100795.44
2023-01-29T05:11:57.599Z,100795.16
2023-01-29T05:12:48.229Z,100798.84
2023-01-29T05:13:35.051Z,100787.50
2023-01-29T05:14:23.774Z,100797.50
2023-01-29T05:15:14.921Z,100795.69
2023-01-29T05:16:15.876Z,100797.69
2023-01-29T05:17:07.826Z,100803.00
2023-01-29T05:17:54.679Z,100800.72
2023-01-29T05:18:41.781Z,100799.97
2023-01-29T05:19:28.593Z,100806.34
2023-01-29T05:20:15.686Z,100803.69
2023-01-29T05:21:05.714Z,100803.31
2023-01-29T05:21:52.620Z,100805.03
2023-01-29T05:22:41.707Z,100802.25
2023-01-29T05:23:28.549Z,100802.47
2023-01-29T05:24:24.357Z,100798.75
2023-01-29T05:25:25.261Z,100804.59
2023-01-29T05:26:30.500Z,100819.78
2023-01-29T05:27:51.020Z,100811.56
2023-01-29T05:28:37.867Z,100818.62
2023-01-29T05:29:24.713Z,100819.66
2023-01-29T05:30:11.882Z,100819.00
2023-01-29T05:30:58.888Z,100821.66
2023-01-29T05:31:46.078Z,100814.34
2023-01-29T05:32:33.447Z,100815.78
2023-01-29T05:33:28.344Z,100815.78
2023-01-29T05:34:15.258Z,100815.69
2023-01-29T05:35:02.125Z,100809.41
2023-01-29T05:35:50.214Z,100812.94
2023-01-29T05:36:37.037Z,100811.03
2023-01-29T05:37:23.922Z,100812.56
2023-01-29T05:38:11.549Z,100811.38
2023-01-29T05:38:58.348Z,100816.50
2023-01-29T05:39:45.145Z,100811.34
2023-01-29T05:40:31.975Z,100809.97
2023-01-29T05:41:18.933Z,100817.00
2023-01-29T05:42:05.841Z,100822.12
2023-01-29T05:42:52.676Z,100813.09
2023-01-29T05:43:39.514Z,100813.09
2023-01-29T05:44:26.518Z,100821.62
2023-01-29T05:45:13.422Z,100822.50
2023-01-29T05:46:01.149Z,100820.53
2023-01-29T05:46:48.030Z,100823.19
2023-01-29T05:47:34.927Z,100815.75
2023-01-29T05:48:22.226Z,100816.50
2023-01-29T05:49:09.266Z,100819.25
2023-01-29T05:49:56.112Z,100821.28
2023-01-29T05:50:42.974Z,100821.56
2023-01-29T05:51:29.813Z,100823.66
2023-01-29T05:52:16.647Z,100828.59
2023-01-29T05:53:03.498Z,100823.28
2023-01-29T05:53:50.317Z,100827.16
2023-01-29T05:54:37.170Z,100823.53
2023-01-29T05:55:23.985Z,100822.78
2023-01-29T05:56:10.995Z,100824.97
2023-01-29T05:56:57.821Z,100828.38
2023-01-29T05:57:44.627Z,100823.94
2023-01-29T05:58:34.668Z,100823.44
2023-01-29T05:59:21.626Z,100829.06
2023-01-29T06:00:09.502Z,100829.34
2023-01-29T06:00:56.322Z,100828.16
2023-01-29T06:01:43.264Z,100827.91
2023-01-29T06:02:31.705Z,100827.63
2023-01-29T06:03:18.609Z,100824.50
2023-01-29T06:04:05.543Z,100833.53
2023-01-29T06:04:52.861Z,100836.47
2023-01-29T06:05:40.239Z,100824.09
2023-01-29T06:06:27.118Z,100830.75
2023-01-29T06:07:13.989Z,100834.56
2023-01-29T06:08:00.795Z,100828.28
2023-01-29T06:08:47.895Z,100831.81
2023-01-29T06:09:34.704Z,100831.72
2023-01-29T06:10:21.553Z,100831.13
2023-01-29T06:11:09.932Z,100831.03
2023-01-29T06:11:56.766Z,100833.37
2023-01-29T06:12:44.069Z,100835.94
2023-01-29T06:13:30.898Z,100829.06
2023-01-29T06:14:17.758Z,100828.59
2023-01-29T06:15:05.051Z,100825.72
2023-01-29T06:15:51.971Z,100828.38
2023-01-29T06:16:38.811Z,100823.72
2023-01-29T06:17:25.671Z,100825.34
2023-01-29T06:18:12.546Z,100836.47
2023-01-29T06:18:59.416Z,100830.28
2023-01-29T06:19:46.227Z,100826.09
2023-01-29T06:20:33.019Z,100831.91
2023-01-29T06:21:20.231Z,100832.06
2023-01-29T06:22:07.174Z,100832.75
2023-01-29T06:22:54.019Z,100823.56
2023-01-29T06:23:41.331Z,100829.13
2023-01-29T06:24:28.186Z,100830.75
2023-01-29T06:25:15.170Z,100834.75
2023-01-29T06:26:07.576Z,100837.41
2023-01-29T06:26:54.469Z,100835.31
2023-01-29T06:27:41.345Z,100841.78
2023-01-29T06:28:28.357Z,100843.87
2023-01-29T06:29:15.242Z,100842.66
2023-01-29T06:30:02.739Z,100831.44
2023-01-29T06:30:49.562Z,100836.47
2023-01-29T06:31:39.234Z,100838.38
2023-01-29T06:32:26.665Z,100840.81
2023-01-29T06:33:13.442Z,100838.84
2023-01-29T06:34:00.304Z,100839.53
2023-01-29T06:34:49.621Z,100837.31
2023-01-29T06:35:36.601Z,100833.91
2023-01-29T06:36:23.537Z,100841.50
2023-01-29T06:37:10.432Z,100840.91
2023-01-29T06:37:57.390Z,100838.94
2023-01-29T06:38:44.237Z,100837.41
2023-01-29T06:39:31.145Z,100836.56
2023-01-29T06:40:18.355Z,100834.00
2023-01-29T06:41:11.249Z,100838.09
2023-01-29T06:41:58.067Z,100830.09
2023-01-29T06:42:46.173Z,100836.06
2023-01-29T06:43:33.214Z,100839.00
2023-01-29T06:44:20.185Z,100837.88
2023-01-29T06:45:07.585Z,100837.25
2023-01-29T06:45:58.113Z,100834.28
2023-01-29T06:46:44.866Z,100836.19
2023-01-29T06:47:31.799Z,100835.81
2023-01-29T06:48:19.452Z,100843.50
2023-01-29T06:49:06.547Z,100835.97
2023-01-29T06:49:53.485Z,100845.09
2023-01-29T06:50:40.276Z,100842.44
2023-01-29T06:51:27.195Z,100849.19
2023-01-29T06:52:14.023Z,100852.53
2023-01-29T06:53:00.842Z,100847.88
2023-01-29T06:53:47.681Z,100847.19
2023-01-29T06:54:34.509Z,100846.59
2023-01-29T06:55:21.545Z,100841.69
2023-01-29T06:56:08.896Z,100848.50
2023-01-29T06:56:56.464Z,100837.63
2023-01-29T06:57:43.313Z,100847.22
2023-01-29T06:58:30.235Z,100841.13
2023-01-29T06:59:17.119Z,100850.31
2023-01-29T07:00:06.483Z,100842.34
2023-01-29T07:00:53.431Z,100842.28
2023-01-29T07:01:44.566Z,100847.50
2023-01-29T07:02:31.521Z,100855.09
2023-01-29T07:03:18.757Z,100851.84
2023-01-29T07:04:05.688Z,100847.59
2023-01-29T07:04:52.723Z,100842.28
2023-01-29T07:05:39.606Z,100848.72
2023-01-29T07:06:30.037Z,100849.19
2023-01-29T07:07:16.939Z,100845.97
2023-01-29T07:08:04.205Z,100845.12
2023-01-29T07:08:51.024Z,100855.19
2023-01-29T07:09:37.873Z,100854.34
2023-01-29T07:10:24.700Z,100848.72
2023-01-29T07:11:11.635Z,100851.19
2023-01-29T07:11:58.481Z,100854.25
2023-01-29T07:12:45.307Z,100859.06
2023-01-29T07:13:32.284Z,100857.28
2023-01-29T07:14:19.063Z,100861.06
2023-01-29T07:15:06.563Z,100856.47
2023-01-29T07:15:53.538Z,100860.41
2023-01-29T07:16:40.388Z,100864.00
2023-01-29T07:17:27.222Z,100860.41
2023-01-29T07:18:14.113Z,100862.38
2023-01-29T07:19:01.630Z,100869.12
2023-01-29T07:19:48.438Z,100868.28
2023-01-29T07:20:35.786Z,100864.13
2023-01-29T07:21:22.702Z,100863.75
2023-01-29T07:22:09.540Z,100862.19
2023-01-29T07:22:59.291Z,100860.97
2023-01-29T07:23:46.734Z,100867.25
2023-01-29T07:24:33.592Z,100875.84
2023-01-29T07:25:21.693Z,100873.09
2023-01-29T07:26:08.572Z,100866.19
2023-01-29T07:26:55.463Z,100877.59
2023-01-29T07:27:42.290Z,100870.75
2023-01-29T07:28:29.641Z,100871.97
2023-01-29T07:29:16.477Z,100885.72
2023-01-29T07:30:03.516Z,100880.91
2023-01-29T07:30:50.423Z,100887.84
2023-01-29T07:31:37.352Z,100892.47
2023-01-29T07:32:24.255Z,100882.06
2023-01-29T07:33:11.798Z,100881.37
2023-01-29T07:33:58.680Z,100881.66
2023-01-29T07:34:45.523Z,100874.63
2023-01-29T07:35:32.890Z,100875.00
2023-01-29T07:36:19.753Z,100876.16
2023-01-29T07:37:06.601Z,100868.09
2023-01-29T07:37:53.427Z,100867.31
2023-01-29T07:38:40.263Z,100863.75
2023-01-29T07:39:27.129Z,100865.44
2023-01-29T07:40:14.297Z,100861.34
2023-01-29T07:41:03.051Z,100870.66
2023-01-29T07:41:50.300Z,100869.31
2023-01-29T07:42:42.369Z,100866.56
2023-01-29T07:43:29.254Z,100868.56
2023-01-29T07:44:16.309Z,100863.91
2023-01-29T07:45:03.276Z,100873.78
2023-01-29T07:45:50.203Z,100866.28
2023-01-29T07:46:37.034Z,100873.09
2023-01-29T07:47:23.863Z,100857.37
2023-01-29T07:48:14.215Z,100854.59
2023-01-29T07:49:01.106Z,100855.53
2023-01-29T07:49:47.961Z,100845.66
2023-01-29T07:50:35.444Z,100856.09
2023-01-29T07:51:22.383Z,100859.59
2023-01-29T07:52:09.327Z,100853.59
2023-01-29T07:52:56.634Z,100863.28
2023-01-29T07:53:44.577Z,100866.12
2023-01-29T07:54:31.808Z,100863.44
2023-01-29T07:55:18.789Z,100863.22
2023-01-29T07:56:05.987Z,100861.41
2023-01-29T07:56:52.802Z,100860.56
2023-01-29T07:57:39.692Z,100857.06
2023-01-29T07:58:26.582Z,100851.44
2023-01-29T07:59:13.451Z,100860.47
2023-01-29T08:00:00.265Z,100863.69
2023-01-29T08:00:47.136Z,100865.00
2023-01-29T08:01:33.997Z,100855.03
2023-01-29T08:02:20.994Z,100859.19
2023-01-29T08:03:12.630Z,100853.56
2023-01-29T08:03:59.526Z,100842.03
2023-01-29T08:04:46.399Z,100844.97
2023-01-29T08:05:33.640Z,100844.75
2023-01-29T08:06:20.498Z,100852.69
2023-01-29T08:07:09.598Z,100849.22
2023-01-29T08:08:06.227Z,100835.31
2023-01-29T08:08:55.909Z,100851.06
2023-01-29T08:09:42.756Z,100841.75
2023-01-29T08:10:29.838Z,100836.81
2023-01-29T08:11:16.921Z,100848.41
2023-01-29T08:12:03.904Z,100845.47
2023-01-29T08:12:57.206Z,100851.00
2023-01-29T08:13:44.307Z,100854.28
2023-01-29T08:14:31.155Z,100857.53
2023-01-29T08:15:17.959Z,100859.31
2023-01-29T08:16:05.470Z,100858.28
2023-01-29T08:16:52.323Z,100847.94
2023-01-29T08:17:56.048Z,100852.56
2023-01-29T08:18:47.804Z,100855.03
2023-01-29T08:19:34.547Z,100859.09
2023-01-29T08:21:36.788Z,100854.41
2023-01-29T08:22:23.604Z,100852.91
2023-01-29T08:23:15.933Z,100856.97
2023-01-29T08:24:02.753Z,100844.09
2023-01-29T08:24:59.876Z,100842.50
2023-01-29T08:25:46.819Z,100849.38
2023-01-29T08:26:33.865Z,100855.75
2023-01-29T08:27:20.826Z,100853.94
2023-01-29T08:28:07.906Z,100866.12
2023-01-29T08:28:54.944Z,100853.06
2023-01-29T08:29:41.977Z,100859.50
2023-01-29T08:30:31.403Z,100862.06
2023-01-29T08:31:20.778Z,100861.25
2023-01-29T08:32:11.402Z,100864.00
2023-01-29T08:32:58.452Z,100862.16
2023-01-29T08:33:45.428Z,100864.06
2023-01-29T08:34:32.493Z,100876.22
2023-01-29T08:35:19.673Z,100877.34
2023-01-29T08:36:08.329Z,100870.28
2023-01-29T08:36:55.193Z,100863.06
2023-01-29T08:37:42.336Z,100875.44
2023-01-29T08:38:29.295Z,100867.69
2023-01-29T08:39:16.227Z,100873.38
2023-01-29T08:40:03.907Z,100875.34
2023-01-29T08:40:51.015Z,100863.47
2023-01-29T08:41:38.093Z,100868.97
2023-01-29T08:42:24.983Z,100869.91
2023-01-29T08:43:13.237Z,100869.91
2023-01-29T08:44:03.377Z,100882.88
2023-01-29T08:44:50.352Z,100873.09
2023-01-29T08:45:39.850Z,100870.50
2023-01-29T08:46:26.870Z,100873.91
2023-01-29T08:47:14.008Z,100873.72
2023-01-29T08:48:01.064Z,100873.19
2023-01-29T08:48:47.991Z,100875.97
2023-01-29T08:49:35.482Z,100870.53
2023-01-29T08:50:22.579Z,100868.78
2023-01-29T08:51:09.564Z,100877.72
2023-01-29T08:52:01.266Z,100871.09
2023-01-29T08:52:49.359Z,100871.44
2023-01-29T08:53:36.287Z,100869.84
2023-01-29T08:54:24.006Z,100870.16
2023-01-29T08:55:11.986Z,100874.31
2023-01-29T08:55:59.241Z,100869.62
2023-01-29T08:56:46.203Z,100867.84
2023-01-29T08:57:33.143Z,100875.06
2023-01-29T08:58:20.642Z,100871.09
2023-01-29T08:59:07.626Z,100878.69
2023-01-29T08:59:54.562Z,100878.03
2023-01-29T09:00:41.519Z,100882.28
2023-01-29T09:01:28.520Z,100879.53
2023-01-29T09:02:15.526Z,100881.47
2023-01-29T09:03:03.416Z,100884.66
2023-01-29T09:03:50.761Z,100886.28
2023-01-29T09:04:37.751Z,100882.69
2023-01-29T09:05:24.703Z,100883.41
2023-01-29T09:06:13.024Z,100886.75
2023-01-29T09:07:00.042Z,100874.16
2023-01-29T09:07:47.121Z,100870.34
2023-01-29T09:08:34.524Z,100874.16
2023-01-29T09:09:21.398Z,100866.84
2023-01-29T09:10:09.106Z,100873.16
2023-01-29T09:10:59.849Z,100875.09
2023-01-29T09:11:46.819Z,100867.16
2023-01-29T09:12:33.850Z,100864.28
2023-01-29T09:13:20.780Z,100869.59
2023-01-29T09:14:07.892Z,100874.50
2023-01-29T09:14:54.861Z,100880.59
2023-01-29T09:15:41.944Z,100878.72
2023-01-29T09:16:28.974Z,100888.94
2023-01-29T09:17:15.958Z,100890.00
2023-01-29T09:18:06.402Z,100891.69
2023-01-29T09:18:54.675Z,100886.50
2023-01-29T09:19:41.611Z,100877.81
2023-01-29T09:20:28.559Z,100900.41
2023-01-29T09:21:15.592Z,100892.78
2023-01-29T09:22:02.925Z,100885.91
2023-01-29T09:22:52.177Z,100887.13
2023-01-29T09:23:39.254Z,100889.88
2023-01-29T09:24:26.266Z,100896.25
2023-01-29T09:25:14.448Z,100893.34
2023-01-29T09:26:01.794Z,100903.59
2023-01-29T09:26:48.785Z,100903.94
2023-01-29T09:27:35.857Z,100898.56
2023-01-29T09:28:23.098Z,100899.62
2023-01-29T09:29:11.214Z,100910.28
2023-01-29T09:29:58.302Z,100908.63
2023-01-29T09:30:45.882Z,100907.78
2023-01-29T09:31:33.869Z,100907.34
2023-01-29T09:32:49.725Z,100912.31
2023-01-29T09:33:28.233Z,100920.41
2023-01-29T09:34:15.352Z,100906.59
2023-01-29T09:35:02.361Z,100913.75
2023-01-29T09:35:49.273Z,100908.75
2023-01-29T09:36:36.312Z,100908.50
2023-01-29T09:37:23.546Z,100911.72
2023-01-29T09:38:11.046Z,100909.34
2023-01-29T09:38:58.018Z,100909.13
2023-01-29T09:39:45.164Z,100909.50
2023-01-29T09:40:46.906Z,100905.16
2023-01-29T09:41:39.814Z,100917.50
2023-01-29T09:42:45.566Z,100915.63
2023-01-29T09:43:42.979Z,100900.72
2023-01-29T09:44:54.684Z,100899.94
2023-01-29T09:45:55.859Z,100908.19
2023-01-29T09:46:45.309Z,100905.22
2023-01-29T09:47:35.098Z,100906.59
2023-01-29T09:48:25.726Z,100911.78